Time;durP1;ratioP1;P1;durP2;ratioP2;P2;SDS_P1;SDS_P2;PMS_P1;PMS_P2;Temp;Humidity;BMP_temperature;BMP_pressure;BME280_temperature;BME280_humidity;BME280_pressure;Samples;Min_cycle;Max_cycle;Signal;HPM_P1;HPM_P2
2024/01/04 00:00:23;;;;;;;6.30;3.70;;;;;;;;;;80986;268;3027298;-32
2024/01/04 00:03:39;;;;;;;7.30;3.60;;;;;;;;;;82327;284;3032116;-32
2024/01/04 00:06:15;;;;;;;6.40;3.30;;;;;;;;;;82387;280;3032947;-32
2024/01/04 00:08:51;;;;;;;6.20;3.60;;;;;;;;;;82318;272;3028586;-32
2024/01/04 00:11:27;;;;;;;6.80;3.50;;;;;;;;;;82316;280;3027480;-32
2024/01/04 00:14:08;;;;;;;7.00;4.00;;;;;;;;;;81022;283;3030652;-32
2024/01/04 00:16:45;;;;;;;6.10;3.60;;;;;;;;;;81023;280;3032262;-32
2024/01/04 00:19:23;;;;;;;6.60;3.50;;;;;;;;;;80970;283;3028645;-32
2024/01/04 00:21:59;;;;;;;5.90;3.30;;;;;;;;;;81064;272;3027206;-32
2024/01/04 00:24:35;;;;;;;6.00;3.30;;;;;;;;;;80993;276;3030724;-31
2024/01/04 00:27:15;;;;;;;6.40;2.90;;;;;;;;;;81044;276;3031293;-31
2024/01/04 00:29:54;;;;;;;6.50;3.50;;;;;;;;;;80996;276;3028531;-31
2024/01/04 00:32:35;;;;;;;5.70;3.10;;;;;;;;;;81004;276;3027298;-31
2024/01/04 00:35:12;;;;;;;5.60;3.10;;;;;;;;;;80990;292;3031269;-31
2024/01/04 00:37:50;;;;;;;6.10;3.10;;;;;;;;;;81033;283;3032087;-31
2024/01/04 00:40:29;;;;;;;5.90;3.00;;;;;;;;;;81017;276;3028473;-32
2024/01/04 00:43:05;;;;;;;5.80;3.10;;;;;;;;;;82359;276;3027016;-32
2024/01/04 00:45:41;;;;;;;5.60;3.00;;;;;;;;;;81353;276;3031294;-32
2024/01/04 00:48:17;;;;;;;5.50;2.90;;;;;;;;;;81055;276;3031621;-31
2024/01/04 00:50:54;;;;;;;6.00;3.10;;;;;;;;;;80998;275;3028417;-31
2024/01/04 00:53:30;;;;;;;5.70;2.90;;;;;;;;;;81008;276;3027627;-32
2024/01/04 00:56:11;;;;;;;5.30;2.90;;;;;;;;;;81027;280;3031382;-32
2024/01/04 00:58:47;;;;;;;6.00;3.30;;;;;;;;;;82341;276;3031803;-32
2024/01/04 01:01:23;;;;;;;5.60;2.80;;;;;;;;;;81935;280;3028340;-32
2024/01/04 01:04:02;;;;;;;5.40;2.80;;;;;;;;;;81018;284;3028017;-32
2024/01/04 01:06:40;;;;;;;5.80;2.80;;;;;;;;;;81036;276;3030415;-32
2024/01/04 01:09:16;;;;;;;4.90;2.70;;;;;;;;;;81042;272;3031507;-31
2024/01/04 01:11:52;;;;;;;5.50;2.90;;;;;;;;;;80987;284;3028718;-31
2024/01/04 01:14:28;;;;;;;5.30;2.70;;;;;;;;;;81020;283;3027773;-32
2024/01/04 01:17:07;;;;;;;5.50;2.70;;;;;;;;;;81024;283;3032561;-32
2024/01/04 01:19:43;;;;;;;4.70;2.40;;;;;;;;;;82358;280;3031680;-32
2024/01/04 01:22:19;;;;;;;5.60;2.60;;;;;;;;;;81541;280;3028430;-32
2024/01/04 01:24:55;;;;;;;5.10;2.60;;;;;;;;;;81035;283;3027640;-32
2024/01/04 01:27:31;;;;;;;5.20;2.70;;;;;;;;;;81009;283;3031083;-31
2024/01/04 01:30:12;;;;;;;4.70;2.30;;;;;;;;;;81022;283;3031862;-32
2024/01/04 01:32:48;;;;;;;4.90;2.50;;;;;;;;;;82086;272;3028334;-32
2024/01/04 01:35:25;;;;;;;5.30;2.80;;;;;;;;;;81060;276;3027694;-31
2024/01/04 01:38:02;;;;;;;4.80;2.30;;;;;;;;;;80793;276;3030963;-32
2024/01/04 01:40:38;;;;;;;5.70;2.70;;;;;;;;;;81053;284;3032022;-31
2024/01/04 01:43:14;;;;;;;4.70;2.60;;;;;;;;;;81017;272;3028624;-31
2024/01/04 01:45:51;;;;;;;4.70;2.20;;;;;;;;;;81046;276;3027983;-32
2024/01/04 01:48:30;;;;;;;5.20;2.20;;;;;;;;;;81033;276;3031212;-31
2024/01/04 01:51:08;;;;;;;4.90;2.50;;;;;;;;;;81003;283;3031652;-32
2024/01/04 01:53:46;;;;;;;4.80;2.50;;;;;;;;;;81553;280;3028185;-32
2024/01/04 01:56:24;;;;;;;4.60;2.30;;;;;;;;;;81024;272;3027811;-32
2024/01/04 01:59:03;;;;;;;4.80;2.40;;;;;;;;;;81032;276;3029096;-32
2024/01/04 02:01:50;;;;;;;5.40;2.30;;;;;;;;;;80987;279;3031452;-32
2024/01/04 02:04:28;;;;;;;5.20;2.30;;;;;;;;;;81031;276;3028712;-31
2024/01/04 02:07:05;;;;;;;5.60;2.50;;;;;;;;;;81039;272;3027531;-32
2024/01/04 02:09:41;;;;;;;5.00;2.40;;;;;;;;;;81035;276;3030703;-32
2024/01/04 02:12:18;;;;;;;4.70;2.30;;;;;;;;;;81038;276;3031748;-31
2024/01/04 02:14:55;;;;;;;4.90;2.20;;;;;;;;;;81059;276;3028047;-31
2024/01/04 02:17:33;;;;;;;5.70;2.30;;;;;;;;;;81011;276;3027545;-32
2024/01/04 02:20:11;;;;;;;4.40;2.20;;;;;;;;;;81006;272;3030528;-32
2024/01/04 02:22:51;;;;;;;4.80;2.30;;;;;;;;;;82123;272;3031200;-32
2024/01/04 02:25:30;;;;;;;5.30;2.50;;;;;;;;;;80983;283;3028638;-32
2024/01/04 02:28:10;;;;;;;5.00;2.30;;;;;;;;;;80932;284;3027504;-32
2024/01/04 02:30:46;;;;;;;4.70;2.10;;;;;;;;;;81247;276;3030850;-32
2024/01/04 02:33:22;;;;;;;5.40;2.30;;;;;;;;;;81021;276;3031771;-32
2024/01/04 02:35:59;;;;;;;4.40;2.00;;;;;;;;;;80879;282;3027859;-32
2024/01/04 02:38:35;;;;;;;4.50;2.10;;;;;;;;;;81039;280;3027758;-31
2024/01/04 02:41:15;;;;;;;4.50;2.30;;;;;;;;;;81003;284;3031370;-31
2024/01/04 02:43:52;;;;;;;5.20;2.20;;;;;;;;;;80939;284;3031865;-32
2024/01/04 02:46:28;;;;;;;5.00;2.10;;;;;;;;;;81009;284;3028094;-32
2024/01/04 02:49:04;;;;;;;4.70;1.90;;;;;;;;;;81046;283;3027903;-31
2024/01/04 02:51:40;;;;;;;5.40;2.30;;;;;;;;;;81016;276;3030973;-31
2024/01/04 02:54:16;;;;;;;5.20;2.30;;;;;;;;;;81032;284;3038981;-31
2024/01/04 02:56:55;;;;;;;4.80;1.90;;;;;;;;;;81023;284;3028270;-31
2024/01/04 02:59:31;;;;;;;4.20;2.00;;;;;;;;;;80987;284;3027170;-31
2024/01/04 03:02:08;;;;;;;4.20;2.00;;;;;;;;;;81017;283;3031292;-31
2024/01/04 03:04:48;;;;;;;4.80;2.00;;;;;;;;;;81034;284;3038144;-31
2024/01/04 03:07:24;;;;;;;4.90;1.90;;;;;;;;;;81031;272;3028437;-31
2024/01/04 03:10:03;;;;;;;4.20;1.90;;;;;;;;;;81028;276;3028169;-32
2024/01/04 03:12:40;;;;;;;4.90;2.20;;;;;;;;;;80973;281;3031204;-32
2024/01/04 03:15:20;;;;;;;5.00;2.10;;;;;;;;;;81012;283;3032323;-32
2024/01/04 03:17:57;;;;;;;4.40;2.10;;;;;;;;;;80989;276;3028666;-32
2024/01/04 03:20:33;;;;;;;5.50;1.90;;;;;;;;;;80964;280;3028085;-31
2024/01/04 03:23:10;;;;;;;5.40;2.30;;;;;;;;;;80981;276;3031473;-32
2024/01/04 03:25:48;;;;;;;4.90;2.20;;;;;;;;;;80996;272;3032130;-32
2024/01/04 03:28:24;;;;;;;4.30;2.10;;;;;;;;;;81009;283;3028535;-32
2024/01/04 03:31:02;;;;;;;5.90;2.00;;;;;;;;;;81001;284;3027560;-31
2024/01/04 03:33:41;;;;;;;4.80;2.10;;;;;;;;;;80995;284;3030757;-32
2024/01/04 03:36:17;;;;;;;4.80;1.90;;;;;;;;;;81013;283;3031972;-32
2024/01/04 03:38:53;;;;;;;4.70;1.90;;;;;;;;;;81011;276;3027846;-32
2024/01/04 03:41:32;;;;;;;4.30;1.90;;;;;;;;;;81006;276;3028011;-32
2024/01/04 03:44:10;;;;;;;4.60;1.80;;;;;;;;;;81007;283;3032696;-32
2024/01/04 03:46:48;;;;;;;5.20;2.10;;;;;;;;;;81001;280;3031351;-32
2024/01/04 03:49:24;;;;;;;4.20;1.70;;;;;;;;;;81005;284;3028485;-32
2024/01/04 03:52:00;;;;;;;3.90;1.70;;;;;;;;;;81014;276;3027392;-32
2024/01/04 03:54:39;;;;;;;4.80;2.00;;;;;;;;;;80993;280;3030679;-32
2024/01/04 03:57:15;;;;;;;4.40;1.90;;;;;;;;;;81028;276;3032011;-32
2024/01/04 03:59:52;;;;;;;4.00;1.90;;;;;;;;;;81020;283;3028425;-31
2024/01/04 04:02:28;;;;;;;5.30;2.10;;;;;;;;;;81567;280;3027751;-32
2024/01/04 04:05:09;;;;;;;4.00;1.80;;;;;;;;;;80986;276;3030392;-31
2024/01/04 04:07:44;;;;;;;4.80;1.90;;;;;;;;;;82233;280;3031542;-32
2024/01/04 04:10:23;;;;;;;4.10;1.80;;;;;;;;;;81053;283;3028180;-32
2024/01/04 04:13:00;;;;;;;4.40;2.10;;;;;;;;;;81054;283;3027737;-32
2024/01/04 04:15:37;;;;;;;3.90;1.90;;;;;;;;;;81000;276;3031242;-31
2024/01/04 04:18:13;;;;;;;4.50;2.00;;;;;;;;;;81002;283;3031579;-31
2024/01/04 04:20:50;;;;;;;4.00;1.80;;;;;;;;;;81053;272;3028658;-32
2024/01/04 04:23:26;;;;;;;4.30;1.90;;;;;;;;;;81021;276;3028053;-32
2024/01/04 04:26:08;;;;;;;4.10;1.80;;;;;;;;;;81001;280;3031240;-32
2024/01/04 04:28:44;;;;;;;4.10;1.90;;;;;;;;;;81655;276;3032085;-31
2024/01/04 04:31:21;;;;;;;4.80;1.90;;;;;;;;;;81045;276;3028440;-31
2024/01/04 04:33:58;;;;;;;4.20;1.80;;;;;;;;;;81024;284;3027845;-32
2024/01/04 04:36:34;;;;;;;4.40;1.90;;;;;;;;;;81046;283;3037021;-31
2024/01/04 04:39:10;;;;;;;4.20;1.90;;;;;;;;;;81040;283;3031452;-32
2024/01/04 04:41:46;;;;;;;4.60;1.90;;;;;;;;;;81046;283;3028508;-32
2024/01/04 04:44:22;;;;;;;5.80;2.10;;;;;;;;;;81020;284;3027630;-31
2024/01/04 04:46:59;;;;;;;4.50;1.80;;;;;;;;;;81024;280;3031004;-32
2024/01/04 04:49:35;;;;;;;3.60;1.60;;;;;;;;;;81034;276;3031828;-32
2024/01/04 04:52:13;;;;;;;4.50;1.70;;;;;;;;;;81684;284;3027850;-32
2024/01/04 04:54:53;;;;;;;4.40;1.60;;;;;;;;;;80991;272;3027580;-32
2024/01/04 04:57:31;;;;;;;3.90;1.80;;;;;;;;;;80988;272;3031044;-32
2024/01/04 05:00:11;;;;;;;4.50;1.90;;;;;;;;;;81051;276;3031263;-31
2024/01/04 05:02:47;;;;;;;4.50;1.70;;;;;;;;;;81165;283;3028165;-32
2024/01/04 05:05:28;;;;;;;4.40;1.60;;;;;;;;;;80918;285;3028259;-32
2024/01/04 05:08:07;;;;;;;3.60;1.60;;;;;;;;;;81022;276;3031032;-32
2024/01/04 05:10:42;;;;;;;3.90;1.80;;;;;;;;;;81223;276;3032014;-32
2024/01/04 05:13:18;;;;;;;3.80;1.70;;;;;;;;;;81069;276;3030824;-32
2024/01/04 05:15:54;;;;;;;4.60;1.90;;;;;;;;;;81025;283;3027331;-31
2024/01/04 05:18:31;;;;;;;3.80;1.50;;;;;;;;;;81065;272;3030447;-31
2024/01/04 05:21:09;;;;;;;4.40;1.70;;;;;;;;;;80871;276;3031946;-32
2024/01/04 05:23:45;;;;;;;4.60;1.70;;;;;;;;;;82300;276;3029324;-32
2024/01/04 05:26:25;;;;;;;3.70;1.60;;;;;;;;;;82193;283;3027302;-32
2024/01/04 05:29:02;;;;;;;4.50;1.60;;;;;;;;;;81025;272;3031005;-32
2024/01/04 05:31:38;;;;;;;4.00;1.70;;;;;;;;;;81038;283;3031241;-32
2024/01/04 05:34:19;;;;;;;4.30;1.80;;;;;;;;;;80985;276;3028794;-31
2024/01/04 05:36:55;;;;;;;4.10;1.50;;;;;;;;;;82222;274;3027396;-32
2024/01/04 05:39:32;;;;;;;3.60;1.60;;;;;;;;;;81159;280;3031054;-32
2024/01/04 05:42:12;;;;;;;3.80;1.50;;;;;;;;;;81286;283;3032726;-31
2024/01/04 05:44:50;;;;;;;4.00;1.60;;;;;;;;;;81035;276;3028526;-31
2024/01/04 05:47:27;;;;;;;4.30;1.60;;;;;;;;;;81005;276;3028338;-31
2024/01/04 05:50:03;;;;;;;4.20;1.70;;;;;;;;;;81024;284;3030776;-30
2024/01/04 05:52:39;;;;;;;4.10;1.60;;;;;;;;;;81035;276;3032247;-31
2024/01/04 05:55:16;;;;;;;4.30;1.70;;;;;;;;;;81010;276;3028855;-31
2024/01/04 05:57:55;;;;;;;4.30;1.70;;;;;;;;;;80978;276;3027238;-31
2024/01/04 06:00:33;;;;;;;5.30;1.70;;;;;;;;;;81021;284;3030995;-31
2024/01/04 06:03:10;;;;;;;4.70;1.50;;;;;;;;;;80985;276;3031238;-32
2024/01/04 06:05:51;;;;;;;6.00;1.60;;;;;;;;;;81010;276;3028414;-32
2024/01/04 06:08:27;;;;;;;4.70;1.90;;;;;;;;;;80968;284;3027760;-31
2024/01/04 06:11:07;;;;;;;5.50;1.60;;;;;;;;;;81038;276;3030504;-31
2024/01/04 06:13:46;;;;;;;5.60;1.80;;;;;;;;;;81045;283;3031660;-30
2024/01/04 06:16:25;;;;;;;7.40;1.90;;;;;;;;;;81009;276;3028761;-31
2024/01/04 06:19:04;;;;;;;4.80;1.60;;;;;;;;;;80985;276;3033344;-31
2024/01/04 06:21:40;;;;;;;4.60;1.70;;;;;;;;;;81031;272;3031338;-31
2024/01/04 06:24:17;;;;;;;5.00;1.80;;;;;;;;;;81030;276;3032020;-31
2024/01/04 06:26:53;;;;;;;6.00;1.90;;;;;;;;;;80992;276;3028293;-31
2024/01/04 06:29:32;;;;;;;4.60;1.70;;;;;;;;;;82360;280;3033704;-31
2024/01/04 06:32:10;;;;;;;4.40;1.60;;;;;;;;;;81772;280;3031631;-31
2024/01/04 06:34:45;;;;;;;5.50;1.60;;;;;;;;;;81915;283;3031777;-31
2024/01/04 06:37:23;;;;;;;6.20;1.70;;;;;;;;;;80994;280;3028110;-31
2024/01/04 06:39:59;;;;;;;6.00;2.00;;;;;;;;;;81023;272;3027460;-31
2024/01/04 06:42:37;;;;;;;6.20;1.70;;;;;;;;;;80995;276;3031035;-31
2024/01/04 06:45:14;;;;;;;5.00;1.80;;;;;;;;;;81116;276;3031504;-31
2024/01/04 06:47:50;;;;;;;4.60;1.90;;;;;;;;;;82356;280;3028221;-30
2024/01/04 06:50:26;;;;;;;5.80;1.80;;;;;;;;;;81279;283;3027086;-30
2024/01/04 06:53:07;;;;;;;4.40;1.70;;;;;;;;;;81020;280;3030853;-30
2024/01/04 06:55:45;;;;;;;4.70;1.60;;;;;;;;;;81026;283;3031596;-30
2024/01/04 06:58:21;;;;;;;5.60;1.60;;;;;;;;;;80995;283;3028638;-30
2024/01/04 07:00:59;;;;;;;5.90;1.60;;;;;;;;;;81031;284;3028330;-31
2024/01/04 07:03:35;;;;;;;4.60;1.50;;;;;;;;;;81029;276;3030667;-30
2024/01/04 07:06:14;;;;;;;4.50;1.70;;;;;;;;;;81026;284;3032876;-31
2024/01/04 07:08:51;;;;;;;5.10;1.70;;;;;;;;;;80969;283;3028818;-31
2024/01/04 07:11:31;;;;;;;4.40;1.70;;;;;;;;;;80994;283;3027376;-30
2024/01/04 07:14:07;;;;;;;4.20;1.70;;;;;;;;;;81025;276;3030679;-30
2024/01/04 07:16:50;;;;;;;4.50;1.60;;;;;;;;;;81016;276;3031807;-31
2024/01/04 07:19:27;;;;;;;4.20;1.70;;;;;;;;;;80993;283;3028388;-31
2024/01/04 07:22:07;;;;;;;5.60;1.80;;;;;;;;;;81058;276;3028101;-31
2024/01/04 07:24:44;;;;;;;3.80;1.40;;;;;;;;;;81010;276;3030573;-30
2024/01/04 07:27:20;;;;;;;4.60;1.60;;;;;;;;;;81026;284;3031923;-30
2024/01/04 07:29:57;;;;;;;4.60;1.60;;;;;;;;;;80880;282;3028724;-31
2024/01/04 07:32:33;;;;;;;4.30;1.60;;;;;;;;;;81918;280;3027217;-31
2024/01/04 07:35:14;;;;;;;5.10;1.80;;;;;;;;;;81029;272;3031136;-31
2024/01/04 07:37:55;;;;;;;4.10;1.70;;;;;;;;;;81040;272;3031433;-31
2024/01/04 07:40:31;;;;;;;4.30;1.70;;;;;;;;;;80990;284;3028450;-31
2024/01/04 07:43:10;;;;;;;4.10;1.60;;;;;;;;;;81050;276;3027775;-31
2024/01/04 07:45:47;;;;;;;4.10;1.70;;;;;;;;;;81019;276;3030852;-31
2024/01/04 07:48:25;;;;;;;4.10;1.70;;;;;;;;;;81973;284;3031505;-31
2024/01/04 07:51:02;;;;;;;4.00;1.70;;;;;;;;;;81021;283;3033863;-31
2024/01/04 07:53:43;;;;;;;4.80;1.60;;;;;;;;;;81036;284;3027899;-31
2024/01/04 07:56:19;;;;;;;4.70;1.90;;;;;;;;;;81018;283;3031553;-31
2024/01/04 07:58:55;;;;;;;4.20;1.70;;;;;;;;;;80986;276;3032572;-30
2024/01/04 08:01:32;;;;;;;4.80;1.70;;;;;;;;;;81042;272;3035744;-31
2024/01/04 08:04:11;;;;;;;4.50;1.80;;;;;;;;;;81022;284;3027220;-31
2024/01/04 08:06:50;;;;;;;4.80;2.10;;;;;;;;;;82179;280;3031030;-31
2024/01/04 08:09:31;;;;;;;6.60;3.50;;;;;;;;;;81033;276;3031797;-31
2024/01/04 08:12:12;;;;;;;6.60;4.20;;;;;;;;;;81052;276;3028677;-30
2024/01/04 08:14:48;;;;;;;7.00;4.20;;;;;;;;;;81340;276;3027918;-31
2024/01/04 08:17:27;;;;;;;6.90;4.00;;;;;;;;;;80994;276;3030647;-30
2024/01/04 08:20:08;;;;;;;6.60;3.80;;;;;;;;;;81036;272;3031897;-31
2024/01/04 08:22:49;;;;;;;6.30;3.30;;;;;;;;;;81082;284;3027956;-31
2024/01/04 08:25:28;;;;;;;8.30;3.70;;;;;;;;;;81105;283;3027279;-31
2024/01/04 08:28:08;;;;;;;5.90;3.40;;;;;;;;;;81084;284;3031247;-31
2024/01/04 08:30:47;;;;;;;6.40;3.40;;;;;;;;;;81019;284;3032308;-31
2024/01/04 08:33:25;;;;;;;7.60;3.40;;;;;;;;;;81018;272;3029709;-31
2024/01/04 08:36:04;;;;;;;6.10;3.30;;;;;;;;;;81028;276;3027370;-31
2024/01/04 08:38:46;;;;;;;5.80;3.20;;;;;;;;;;81031;276;3030701;-31
2024/01/04 08:41:23;;;;;;;6.60;3.40;;;;;;;;;;80947;276;3032615;-29
2024/01/04 08:44:01;;;;;;;6.60;3.20;;;;;;;;;;81005;276;3029568;-29
2024/01/04 08:46:38;;;;;;;5.60;2.80;;;;;;;;;;80960;269;3027136;-29
2024/01/04 08:49:16;;;;;;;6.00;3.10;;;;;;;;;;80993;285;3031148;-29
2024/01/04 08:51:55;;;;;;;6.50;2.80;;;;;;;;;;80973;276;3032112;-30
2024/01/04 08:54:31;;;;;;;5.80;2.80;;;;;;;;;;82210;276;3027927;-30
2024/01/04 08:57:07;;;;;;;5.40;3.10;;;;;;;;;;81053;276;3027638;-29
2024/01/04 08:59:43;;;;;;;5.50;2.90;;;;;;;;;;81223;275;3031392;-30
2024/01/04 09:02:20;;;;;;;6.10;2.90;;;;;;;;;;82359;280;3031675;-30
2024/01/04 09:04:56;;;;;;;5.80;2.80;;;;;;;;;;81228;284;3027938;-30
2024/01/04 09:07:33;;;;;;;5.30;2.60;;;;;;;;;;80982;284;3027997;-29
2024/01/04 09:10:11;;;;;;;6.70;3.00;;;;;;;;;;81008;284;3030382;-30
2024/01/04 09:12:47;;;;;;;5.10;3.00;;;;;;;;;;81984;281;3031637;-29
2024/01/04 09:15:25;;;;;;;5.50;2.80;;;;;;;;;;80996;276;3028322;-30
2024/01/04 09:18:05;;;;;;;5.20;2.50;;;;;;;;;;80961;276;3028293;-30
2024/01/04 09:20:42;;;;;;;7.10;2.90;;;;;;;;;;82344;280;3030394;-31
2024/01/04 09:23:18;;;;;;;5.00;2.40;;;;;;;;;;82153;272;3037700;-30
2024/01/04 09:25:54;;;;;;;6.60;2.70;;;;;;;;;;80925;276;3028196;-30
2024/01/04 09:28:30;;;;;;;6.50;2.50;;;;;;;;;;81011;284;3027352;-32
2024/01/04 09:31:08;;;;;;;5.00;2.50;;;;;;;;;;81009;276;3031043;-32
2024/01/04 09:33:44;;;;;;;5.30;2.50;;;;;;;;;;81002;280;3032025;-32
2024/01/04 09:36:20;;;;;;;5.80;2.50;;;;;;;;;;80277;272;3028190;-32
2024/01/04 09:38:58;;;;;;;5.80;2.50;;;;;;;;;;81045;276;3027208;-31
2024/01/04 09:41:44;;;;;;;5.30;2.20;;;;;;;;;;80969;280;3030595;-31
2024/01/04 09:44:22;;;;;;;5.00;2.30;;;;;;;;;;80991;284;3031996;-30
2024/01/04 09:47:02;;;;;;;5.00;2.30;;;;;;;;;;80995;283;3029356;-30
2024/01/04 09:49:41;;;;;;;4.90;2.40;;;;;;;;;;81018;284;3027790;-30
2024/01/04 09:52:19;;;;;;;6.00;2.60;;;;;;;;;;80964;276;3030730;-31
2024/01/04 09:55:00;;;;;;;4.60;2.40;;;;;;;;;;81035;276;3031556;-31
2024/01/04 09:57:39;;;;;;;4.60;2.40;;;;;;;;;;81038;276;3027904;-31
2024/01/04 10:00:17;;;;;;;4.80;2.20;;;;;;;;;;81042;276;3027645;-31
2024/01/04 10:02:53;;;;;;;4.90;2.10;;;;;;;;;;82343;272;3030692;-30
2024/01/04 10:05:31;;;;;;;5.00;2.30;;;;;;;;;;81333;279;3032039;-29
2024/01/04 10:08:23;;;;;;;5.10;2.30;;;;;;;;;;80986;279;3028420;-30
2024/01/04 10:11:10;;;;;;;4.50;2.00;;;;;;;;;;81028;276;3027443;-30
2024/01/04 10:13:47;;;;;;;5.10;2.20;;;;;;;;;;80981;284;3029502;-30
2024/01/04 10:16:27;;;;;;;5.40;2.20;;;;;;;;;;81035;276;3031936;-30
2024/01/04 10:19:04;;;;;;;4.10;2.10;;;;;;;;;;82352;279;3028091;-31
2024/01/04 10:21:40;;;;;;;5.60;2.20;;;;;;;;;;82350;284;3027926;-30
2024/01/04 10:24:22;;;;;;;4.90;2.20;;;;;;;;;;81501;276;3031085;-30
2024/01/04 10:27:01;;;;;;;5.10;2.20;;;;;;;;;;81035;276;3032073;-29
2024/01/04 10:29:41;;;;;;;5.70;2.80;;;;;;;;;;81028;283;3028763;-30
2024/01/04 10:32:20;;;;;;;5.00;2.60;;;;;;;;;;80990;272;3027422;-29
2024/01/04 10:35:08;;;;;;;4.50;2.40;;;;;;;;;;80977;276;3037437;-30
2024/01/04 10:37:45;;;;;;;5.10;2.50;;;;;;;;;;81697;280;3031727;-29
2024/01/04 10:40:25;;;;;;;5.50;2.10;;;;;;;;;;81026;282;3028117;-30
2024/01/04 10:43:07;;;;;;;5.40;2.20;;;;;;;;;;81006;283;3027943;-31
2024/01/04 10:45:43;;;;;;;4.80;2.00;;;;;;;;;;81024;280;3030872;-31
2024/01/04 10:48:21;;;;;;;4.20;2.00;;;;;;;;;;81010;276;3032049;-31
2024/01/04 10:51:05;;;;;;;4.70;1.80;;;;;;;;;;80974;276;3028349;-30
2024/01/04 10:53:41;;;;;;;4.20;1.90;;;;;;;;;;81779;276;3027341;-31
2024/01/04 10:56:19;;;;;;;7.20;2.40;;;;;;;;;;81020;283;3031225;-31
2024/01/04 10:59:00;;;;;;;4.70;2.10;;;;;;;;;;81144;276;3031925;-31
2024/01/04 11:01:37;;;;;;;5.00;2.00;;;;;;;;;;81009;280;3028374;-31
2024/01/04 11:04:20;;;;;;;5.20;2.00;;;;;;;;;;81038;276;3029261;-31
2024/01/04 11:06:59;;;;;;;4.80;2.00;;;;;;;;;;81088;283;3030772;-31
2024/01/04 11:09:35;;;;;;;4.90;1.90;;;;;;;;;;82105;279;3031368;-31
2024/01/04 11:12:15;;;;;;;4.70;1.90;;;;;;;;;;81043;271;3028874;-31
2024/01/04 11:14:53;;;;;;;4.90;1.80;;;;;;;;;;81004;276;3027510;-31
2024/01/04 11:17:55;;;;;;;4.90;2.00;;;;;;;;;;81028;276;3031315;-31
2024/01/04 11:20:57;;;;;;;4.30;2.10;;;;;;;;;;81004;276;3031189;-31
2024/01/04 11:23:54;;;;;;;4.90;2.20;;;;;;;;;;81004;276;3028248;-30
2024/01/04 11:26:42;;;;;;;4.60;1.80;;;;;;;;;;81010;276;3033657;-31
2024/01/04 11:29:20;;;;;;;5.40;2.50;;;;;;;;;;82403;280;3030429;-31
2024/01/04 11:32:00;;;;;;;4.30;1.80;;;;;;;;;;82218;276;3031270;-31
2024/01/04 11:34:37;;;;;;;4.80;2.00;;;;;;;;;;81004;284;3028464;-31
2024/01/04 11:37:19;;;;;;;4.40;1.90;;;;;;;;;;81047;276;3027155;-31
2024/01/04 11:40:05;;;;;;;5.20;2.10;;;;;;;;;;81069;272;3030628;-31
2024/01/04 11:42:42;;;;;;;4.70;2.10;;;;;;;;;;81027;272;3031206;-31
2024/01/04 11:45:25;;;;;;;4.40;1.90;;;;;;;;;;81003;283;3028588;-31
2024/01/04 11:48:04;;;;;;;5.10;2.00;;;;;;;;;;80836;286;3027892;-31
2024/01/04 11:50:51;;;;;;;4.90;2.10;;;;;;;;;;82331;276;3031866;-31
2024/01/04 11:53:31;;;;;;;4.30;1.90;;;;;;;;;;81102;283;3031168;-31
2024/01/04 11:56:12;;;;;;;5.40;2.20;;;;;;;;;;81076;283;3027984;-31
2024/01/04 11:58:48;;;;;;;4.70;2.00;;;;;;;;;;81915;280;3027333;-31
2024/01/04 12:01:27;;;;;;;4.30;2.30;;;;;;;;;;81028;284;3031264;-32
2024/01/04 12:04:12;;;;;;;4.30;2.20;;;;;;;;;;81052;284;3031866;-31
2024/01/04 12:06:52;;;;;;;5.20;2.20;;;;;;;;;;81045;276;3028139;-31
2024/01/04 12:09:29;;;;;;;5.30;2.40;;;;;;;;;;81004;283;3027326;-31
2024/01/04 12:12:07;;;;;;;6.00;2.20;;;;;;;;;;80989;280;3030448;-31
2024/01/04 12:14:44;;;;;;;4.90;2.10;;;;;;;;;;81040;284;3031662;-31
2024/01/04 12:17:20;;;;;;;4.90;2.20;;;;;;;;;;80936;272;3028653;-31
2024/01/04 12:19:59;;;;;;;4.40;2.10;;;;;;;;;;80983;280;3028209;-31
2024/01/04 12:22:39;;;;;;;5.30;2.00;;;;;;;;;;80833;283;3030720;-32
2024/01/04 12:25:20;;;;;;;5.40;2.30;;;;;;;;;;81009;283;3032077;-31
2024/01/04 12:27:57;;;;;;;5.50;2.00;;;;;;;;;;82333;272;3033951;-31
2024/01/04 12:30:35;;;;;;;5.10;2.30;;;;;;;;;;81644;280;3027311;-32
2024/01/04 12:33:15;;;;;;;5.40;2.30;;;;;;;;;;81027;283;3030883;-32
2024/01/04 12:36:01;;;;;;;5.40;2.10;;;;;;;;;;81011;280;3031472;-32
2024/01/04 12:38:40;;;;;;;5.50;2.30;;;;;;;;;;82312;284;3028145;-32
2024/01/04 12:41:27;;;;;;;4.40;1.90;;;;;;;;;;81466;279;3027541;-32
2024/01/04 12:44:04;;;;;;;4.60;2.30;;;;;;;;;;81382;276;3030531;-31
2024/01/04 12:46:46;;;;;;;5.30;2.20;;;;;;;;;;81013;276;3032156;-31
2024/01/04 12:49:23;;;;;;;5.00;2.20;;;;;;;;;;81016;283;3028773;-31
2024/01/04 12:52:12;;;;;;;4.80;2.10;;;;;;;;;;81029;284;3027187;-31
2024/01/04 12:54:48;;;;;;;5.20;2.00;;;;;;;;;;82359;283;3030376;-31
2024/01/04 12:57:24;;;;;;;5.20;2.00;;;;;;;;;;82351;276;3031335;-32
2024/01/04 13:00:01;;;;;;;5.80;2.20;;;;;;;;;;82338;279;3029400;-33
2024/01/04 13:02:37;;;;;;;5.20;2.10;;;;;;;;;;81015;276;3027217;-32
2024/01/04 13:05:15;;;;;;;4.30;1.90;;;;;;;;;;81007;276;3031166;-32
2024/01/04 13:07:52;;;;;;;5.30;2.10;;;;;;;;;;81005;276;3032270;-31
2024/01/04 13:10:30;;;;;;;4.10;1.90;;;;;;;;;;81015;284;3028215;-32
2024/01/04 13:13:07;;;;;;;4.60;2.00;;;;;;;;;;81011;280;3027389;-32
2024/01/04 13:15:46;;;;;;;4.90;1.90;;;;;;;;;;80962;276;3031347;-30
2024/01/04 13:18:22;;;;;;;4.30;2.10;;;;;;;;;;80986;276;3031340;-30
2024/01/04 13:20:58;;;;;;;4.70;1.90;;;;;;;;;;81004;272;3028785;-30
2024/01/04 13:23:34;;;;;;;4.80;2.00;;;;;;;;;;81009;284;3027949;-30
2024/01/04 13:26:10;;;;;;;5.70;2.30;;;;;;;;;;81024;283;3030582;-30
2024/01/04 13:28:46;;;;;;;5.20;2.10;;;;;;;;;;80968;280;3031944;-29
2024/01/04 13:31:23;;;;;;;4.40;1.80;;;;;;;;;;81019;276;3029054;-30
2024/01/04 13:33:59;;;;;;;4.70;2.10;;;;;;;;;;81000;276;3027119;-30
2024/01/04 13:36:35;;;;;;;4.40;2.00;;;;;;;;;;80934;284;3030943;-31
2024/01/04 13:39:13;;;;;;;4.80;1.90;;;;;;;;;;80876;284;3032795;-30
2024/01/04 13:41:54;;;;;;;5.60;2.10;;;;;;;;;;81002;284;3028057;-30
2024/01/04 13:44:30;;;;;;;7.00;2.40;;;;;;;;;;81031;272;3027591;-30
2024/01/04 13:47:06;;;;;;;5.60;2.00;;;;;;;;;;80998;276;3031501;-30
2024/01/04 13:49:43;;;;;;;5.00;2.00;;;;;;;;;;82190;276;3037757;-30
2024/01/04 13:52:19;;;;;;;4.60;2.00;;;;;;;;;;80975;276;3028653;-30
2024/01/04 13:55:00;;;;;;;5.10;2.20;;;;;;;;;;81019;276;3027978;-30
2024/01/04 13:57:36;;;;;;;4.60;2.10;;;;;;;;;;80967;272;3031296;-30
2024/01/04 14:00:14;;;;;;;5.00;2.00;;;;;;;;;;80983;276;3031724;-30
2024/01/04 14:02:50;;;;;;;4.30;2.00;;;;;;;;;;81478;276;3027938;-30
2024/01/04 14:05:26;;;;;;;5.70;2.10;;;;;;;;;;80842;284;3029959;-30
2024/01/04 14:08:03;;;;;;;4.90;2.10;;;;;;;;;;80948;276;3032726;-29
2024/01/04 14:10:42;;;;;;;4.70;2.10;;;;;;;;;;81017;276;3032731;-30
2024/01/04 14:13:18;;;;;;;4.70;1.70;;;;;;;;;;80978;276;3028652;-30
2024/01/04 14:15:54;;;;;;;4.90;1.90;;;;;;;;;;80986;276;3027830;-30
2024/01/04 14:18:30;;;;;;;4.80;1.90;;;;;;;;;;80900;284;3030971;-30
2024/01/04 14:21:08;;;;;;;4.90;1.90;;;;;;;;;;80994;283;3032748;-30
2024/01/04 14:23:44;;;;;;;4.80;2.10;;;;;;;;;;80977;276;3028066;-30
2024/01/04 14:26:20;;;;;;;4.60;2.10;;;;;;;;;;81009;283;3028010;-30
2024/01/04 14:28:56;;;;;;;5.50;2.20;;;;;;;;;;80962;272;3030967;-30
2024/01/04 14:31:37;;;;;;;4.50;2.20;;;;;;;;;;81007;276;3031310;-30
2024/01/04 14:34:14;;;;;;;4.70;2.10;;;;;;;;;;81010;276;3028576;-30
2024/01/04 14:36:50;;;;;;;5.20;2.10;;;;;;;;;;81455;283;3027703;-30
2024/01/04 14:39:27;;;;;;;5.00;2.20;;;;;;;;;;81012;283;3030965;-30
2024/01/04 14:42:03;;;;;;;5.20;2.30;;;;;;;;;;81008;272;3031986;-30
2024/01/04 14:44:43;;;;;;;6.00;2.50;;;;;;;;;;81010;276;3028932;-30
2024/01/04 14:47:19;;;;;;;5.40;2.30;;;;;;;;;;81046;276;3027862;-30
2024/01/04 14:49:55;;;;;;;5.30;2.40;;;;;;;;;;81034;276;3031674;-30
2024/01/04 14:52:33;;;;;;;5.70;2.40;;;;;;;;;;81003;276;3031770;-30
2024/01/04 14:55:12;;;;;;;7.10;3.00;;;;;;;;;;80993;284;3028531;-29
2024/01/04 14:57:48;;;;;;;5.90;2.80;;;;;;;;;;82344;284;3027671;-30
2024/01/04 15:00:24;;;;;;;5.80;2.80;;;;;;;;;;81843;280;3030607;-30
2024/01/04 15:03:00;;;;;;;5.80;3.10;;;;;;;;;;81060;280;3032427;-30
2024/01/04 15:05:36;;;;;;;5.20;2.70;;;;;;;;;;81254;284;3028688;-30
2024/01/04 15:08:11;;;;;;;6.10;2.90;;;;;;;;;;81130;280;3028373;-30
2024/01/04 15:10:47;;;;;;;6.40;2.80;;;;;;;;;;80998;284;3030547;-30
2024/01/04 15:13:23;;;;;;;6.30;2.80;;;;;;;;;;80979;280;3031709;-30
2024/01/04 15:15:59;;;;;;;5.90;2.70;;;;;;;;;;81027;283;3028777;-30
2024/01/04 15:18:35;;;;;;;6.70;2.90;;;;;;;;;;81016;284;3029594;-30
2024/01/04 15:21:12;;;;;;;6.00;2.90;;;;;;;;;;81006;276;3031506;-30
2024/01/04 15:23:48;;;;;;;6.60;3.00;;;;;;;;;;81055;284;3031551;-30
2024/01/04 15:26:25;;;;;;;5.80;2.70;;;;;;;;;;82381;272;3028797;-30
2024/01/04 15:29:00;;;;;;;6.60;2.70;;;;;;;;;;82264;280;3027856;-30
2024/01/04 15:31:36;;;;;;;6.00;2.50;;;;;;;;;;80993;283;3037641;-30
2024/01/04 15:34:12;;;;;;;5.40;2.70;;;;;;;;;;81022;283;3031489;-30